sensor_id;sensor_type;location;lat;lon;timestamp;P1;durP1;ratioP1;P2;durP2;ratioP2
12631;SDS011;6381;45.748;12.106;2022-12-18T00:02:14;11.07;;;8.40;;
12631;SDS011;6381;45.748;12.106;2022-12-18T00:04:44;8.50;;;7.80;;
12631;SDS011;6381;45.748;12.106;2022-12-18T00:07:13;8.83;;;7.87;;
12631;SDS011;6381;45.748;12.106;2022-12-18T00:09:44;9.87;;;8.47;;
12631;SDS011;6381;45.748;12.106;2022-12-18T00:12:14;9.13;;;8.33;;
12631;SDS011;6381;45.748;12.106;2022-12-18T00:14:50;9.67;;;8.23;;
12631;SDS011;6381;45.748;12.106;2022-12-18T00:17:20;8.70;;;7.83;;
12631;SDS011;6381;45.748;12.106;2022-12-18T00:19:49;9.20;;;8.30;;
12631;SDS011;6381;45.748;12.106;2022-12-18T00:22:19;9.20;;;8.40;;
12631;SDS011;6381;45.748;12.106;2022-12-18T00:24:48;9.23;;;8.43;;
12631;SDS011;6381;45.748;12.106;2022-12-18T00:27:17;9.53;;;8.73;;
12631;SDS011;6381;45.748;12.106;2022-12-18T00:29:47;9.33;;;8.53;;
12631;SDS011;6381;45.748;12.106;2022-12-18T00:32:18;9.33;;;8.47;;
12631;SDS011;6381;45.748;12.106;2022-12-18T00:34:48;9.80;;;7.80;;
12631;SDS011;6381;45.748;12.106;2022-12-18T00:37:17;9.50;;;8.70;;
12631;SDS011;6381;45.748;12.106;2022-12-18T00:39:50;9.40;;;8.50;;
12631;SDS011;6381;45.748;12.106;2022-12-18T00:42:19;9.73;;;8.93;;
12631;SDS011;6381;45.748;12.106;2022-12-18T00:45:06;9.50;;;8.53;;
12631;SDS011;6381;45.748;12.106;2022-12-18T00:47:40;9.60;;;8.70;;
12631;SDS011;6381;45.748;12.106;2022-12-18T00:50:10;9.00;;;8.10;;
12631;SDS011;6381;45.748;12.106;2022-12-18T00:52:40;9.57;;;8.77;;
12631;SDS011;6381;45.748;12.106;2022-12-18T00:55:10;9.03;;;8.23;;
12631;SDS011;6381;45.748;12.106;2022-12-18T00:57:39;8.40;;;7.70;;
12631;SDS011;6381;45.748;12.106;2022-12-18T01:00:10;9.20;;;8.40;;
12631;SDS011;6381;45.748;12.106;2022-12-18T01:02:42;9.00;;;8.20;;
12631;SDS011;6381;45.748;12.106;2022-12-18T01:05:12;9.30;;;8.50;;
12631;SDS011;6381;45.748;12.106;2022-12-18T01:07:42;9.43;;;8.63;;
12631;SDS011;6381;45.748;12.106;2022-12-18T01:10:12;9.50;;;8.23;;
12631;SDS011;6381;45.748;12.106;2022-12-18T01:12:41;10.00;;;8.70;;
12631;SDS011;6381;45.748;12.106;2022-12-18T01:15:12;9.00;;;8.07;;
12631;SDS011;6381;45.748;12.106;2022-12-18T01:17:43;9.27;;;8.47;;
12631;SDS011;6381;45.748;12.106;2022-12-18T01:20:13;8.47;;;7.77;;
12631;SDS011;6381;45.748;12.106;2022-12-18T01:22:42;8.73;;;7.93;;
12631;SDS011;6381;45.748;12.106;2022-12-18T01:25:12;9.73;;;8.70;;
12631;SDS011;6381;45.748;12.106;2022-12-18T01:27:42;8.60;;;7.90;;
12631;SDS011;6381;45.748;12.106;2022-12-18T01:30:12;8.27;;;7.47;;
12631;SDS011;6381;45.748;12.106;2022-12-18T01:32:43;8.67;;;7.87;;
12631;SDS011;6381;45.748;12.106;2022-12-18T01:35:12;8.97;;;8.17;;
12631;SDS011;6381;45.748;12.106;2022-12-18T01:37:42;8.50;;;7.70;;
12631;SDS011;6381;45.748;12.106;2022-12-18T01:40:11;8.67;;;7.87;;
12631;SDS011;6381;45.748;12.106;2022-12-18T01:42:41;8.40;;;7.70;;
12631;SDS011;6381;45.748;12.106;2022-12-18T01:45:25;8.53;;;7.73;;
12631;SDS011;6381;45.748;12.106;2022-12-18T01:47:59;8.70;;;7.90;;
12631;SDS011;6381;45.748;12.106;2022-12-18T01:50:31;8.50;;;7.67;;
12631;SDS011;6381;45.748;12.106;2022-12-18T01:53:05;8.13;;;7.43;;
12631;SDS011;6381;45.748;12.106;2022-12-18T01:55:36;8.83;;;8.03;;
12631;SDS011;6381;45.748;12.106;2022-12-18T01:58:07;8.47;;;7.77;;
12631;SDS011;6381;45.748;12.106;2022-12-18T02:00:36;8.77;;;7.97;;
12631;SDS011;6381;45.748;12.106;2022-12-18T02:03:07;8.53;;;7.73;;
12631;SDS011;6381;45.748;12.106;2022-12-18T02:05:40;8.23;;;7.50;;
12631;SDS011;6381;45.748;12.106;2022-12-18T02:08:13;8.73;;;7.93;;
12631;SDS011;6381;45.748;12.106;2022-12-18T02:10:47;8.10;;;7.40;;
12631;SDS011;6381;45.748;12.106;2022-12-18T02:13:24;8.10;;;7.40;;
12631;SDS011;6381;45.748;12.106;2022-12-18T02:15:57;8.10;;;7.37;;
12631;SDS011;6381;45.748;12.106;2022-12-18T02:18:32;8.03;;;7.30;;
12631;SDS011;6381;45.748;12.106;2022-12-18T02:21:04;8.83;;;8.03;;
12631;SDS011;6381;45.748;12.106;2022-12-18T02:23:41;10.63;;;7.77;;
12631;SDS011;6381;45.748;12.106;2022-12-18T02:26:16;8.40;;;7.70;;
12631;SDS011;6381;45.748;12.106;2022-12-18T02:28:53;9.47;;;8.67;;
12631;SDS011;6381;45.748;12.106;2022-12-18T02:31:27;9.10;;;8.30;;
12631;SDS011;6381;45.748;12.106;2022-12-18T02:34:00;8.93;;;8.13;;
12631;SDS011;6381;45.748;12.106;2022-12-18T02:36:36;8.87;;;8.07;;
12631;SDS011;6381;45.748;12.106;2022-12-18T02:39:07;8.67;;;7.90;;
12631;SDS011;6381;45.748;12.106;2022-12-18T02:41:46;8.23;;;7.43;;
12631;SDS011;6381;45.748;12.106;2022-12-18T02:44:16;9.73;;;7.80;;
12631;SDS011;6381;45.748;12.106;2022-12-18T02:46:46;9.37;;;8.47;;
12631;SDS011;6381;45.748;12.106;2022-12-18T02:49:21;9.10;;;8.10;;
12631;SDS011;6381;45.748;12.106;2022-12-18T02:51:59;8.80;;;8.00;;
12631;SDS011;6381;45.748;12.106;2022-12-18T02:54:34;9.70;;;8.70;;
12631;SDS011;6381;45.748;12.106;2022-12-18T02:57:12;8.90;;;8.20;;
12631;SDS011;6381;45.748;12.106;2022-12-18T02:59:46;9.17;;;8.30;;
12631;SDS011;6381;45.748;12.106;2022-12-18T03:02:20;8.67;;;7.87;;
12631;SDS011;6381;45.748;12.106;2022-12-18T03:04:53;9.17;;;8.27;;
12631;SDS011;6381;45.748;12.106;2022-12-18T03:07:28;8.60;;;7.80;;
12631;SDS011;6381;45.748;12.106;2022-12-18T03:10:07;8.60;;;7.70;;
12631;SDS011;6381;45.748;12.106;2022-12-18T03:12:40;9.60;;;8.80;;
12631;SDS011;6381;45.748;12.106;2022-12-18T03:15:12;8.87;;;8.07;;
12631;SDS011;6381;45.748;12.106;2022-12-18T03:17:50;9.20;;;8.40;;
12631;SDS011;6381;45.748;12.106;2022-12-18T03:20:24;9.03;;;8.13;;
12631;SDS011;6381;45.748;12.106;2022-12-18T03:22:55;9.50;;;8.70;;
12631;SDS011;6381;45.748;12.106;2022-12-18T03:25:26;9.37;;;8.47;;
12631;SDS011;6381;45.748;12.106;2022-12-18T03:27:58;9.13;;;8.33;;
12631;SDS011;6381;45.748;12.106;2022-12-18T03:30:30;9.53;;;8.60;;
12631;SDS011;6381;45.748;12.106;2022-12-18T03:33:02;9.17;;;8.27;;
12631;SDS011;6381;45.748;12.106;2022-12-18T03:35:39;9.47;;;8.67;;
12631;SDS011;6381;45.748;12.106;2022-12-18T03:38:11;9.07;;;8.27;;
12631;SDS011;6381;45.748;12.106;2022-12-18T03:40:47;9.07;;;8.27;;
12631;SDS011;6381;45.748;12.106;2022-12-18T03:43:25;9.47;;;8.60;;
12631;SDS011;6381;45.748;12.106;2022-12-18T03:46:01;9.20;;;8.40;;
12631;SDS011;6381;45.748;12.106;2022-12-18T03:48:32;9.20;;;8.30;;
12631;SDS011;6381;45.748;12.106;2022-12-18T03:51:10;8.97;;;8.17;;
12631;SDS011;6381;45.748;12.106;2022-12-18T03:53:41;9.83;;;8.93;;
12631;SDS011;6381;45.748;12.106;2022-12-18T03:56:14;8.87;;;8.17;;
12631;SDS011;6381;45.748;12.106;2022-12-18T03:58:47;9.73;;;8.83;;
12631;SDS011;6381;45.748;12.106;2022-12-18T04:01:23;9.10;;;8.30;;
12631;SDS011;6381;45.748;12.106;2022-12-18T04:03:55;10.50;;;9.50;;
12631;SDS011;6381;45.748;12.106;2022-12-18T04:06:26;9.17;;;8.37;;
12631;SDS011;6381;45.748;12.106;2022-12-18T04:08:57;10.03;;;9.13;;
12631;SDS011;6381;45.748;12.106;2022-12-18T04:11:29;10.00;;;9.00;;
12631;SDS011;6381;45.748;12.106;2022-12-18T04:14:03;10.07;;;9.07;;
12631;SDS011;6381;45.748;12.106;2022-12-18T04:16:34;9.83;;;8.93;;
12631;SDS011;6381;45.748;12.106;2022-12-18T04:19:05;10.07;;;9.10;;
12631;SDS011;6381;45.748;12.106;2022-12-18T04:21:39;10.50;;;9.50;;
12631;SDS011;6381;45.748;12.106;2022-12-18T04:24:10;10.03;;;9.13;;
12631;SDS011;6381;45.748;12.106;2022-12-18T04:26:48;10.27;;;9.37;;
12631;SDS011;6381;45.748;12.106;2022-12-18T04:29:25;9.90;;;9.00;;
12631;SDS011;6381;45.748;12.106;2022-12-18T04:31:55;9.73;;;8.73;;
12631;SDS011;6381;45.748;12.106;2022-12-18T04:34:27;9.20;;;8.40;;
12631;SDS011;6381;45.748;12.106;2022-12-18T04:36:58;8.83;;;8.03;;
12631;SDS011;6381;45.748;12.106;2022-12-18T04:39:28;9.20;;;8.30;;
12631;SDS011;6381;45.748;12.106;2022-12-18T04:42:03;9.53;;;8.63;;
12631;SDS011;6381;45.748;12.106;2022-12-18T04:44:34;10.20;;;9.23;;
12631;SDS011;6381;45.748;12.106;2022-12-18T04:47:05;9.83;;;8.93;;
12631;SDS011;6381;45.748;12.106;2022-12-18T04:49:34;9.67;;;8.73;;
12631;SDS011;6381;45.748;12.106;2022-12-18T04:52:04;9.47;;;8.67;;
12631;SDS011;6381;45.748;12.106;2022-12-18T04:54:33;10.10;;;9.17;;
12631;SDS011;6381;45.748;12.106;2022-12-18T04:57:04;10.60;;;9.63;;
12631;SDS011;6381;45.748;12.106;2022-12-18T04:59:35;9.87;;;8.97;;
12631;SDS011;6381;45.748;12.106;2022-12-18T05:02:04;9.43;;;8.63;;
12631;SDS011;6381;45.748;12.106;2022-12-18T05:04:34;10.33;;;9.33;;
12631;SDS011;6381;45.748;12.106;2022-12-18T05:07:04;9.93;;;9.03;;
12631;SDS011;6381;45.748;12.106;2022-12-18T05:09:33;9.87;;;9.07;;
12631;SDS011;6381;45.748;12.106;2022-12-18T05:12:03;9.30;;;8.50;;
12631;SDS011;6381;45.748;12.106;2022-12-18T05:14:32;10.00;;;9.07;;
12631;SDS011;6381;45.748;12.106;2022-12-18T05:17:03;10.17;;;9.27;;
12631;SDS011;6381;45.748;12.106;2022-12-18T05:19:32;9.63;;;8.70;;
12631;SDS011;6381;45.748;12.106;2022-12-18T05:22:02;10.00;;;9.00;;
12631;SDS011;6381;45.748;12.106;2022-12-18T05:24:31;10.33;;;9.33;;
12631;SDS011;6381;45.748;12.106;2022-12-18T05:27:01;10.40;;;9.50;;
12631;SDS011;6381;45.748;12.106;2022-12-18T05:29:30;10.00;;;9.17;;
12631;SDS011;6381;45.748;12.106;2022-12-18T05:32:00;10.17;;;9.27;;
12631;SDS011;6381;45.748;12.106;2022-12-18T05:34:31;9.10;;;8.30;;
12631;SDS011;6381;45.748;12.106;2022-12-18T05:37:01;9.60;;;8.60;;
12631;SDS011;6381;45.748;12.106;2022-12-18T05:39:30;9.40;;;8.53;;
12631;SDS011;6381;45.748;12.106;2022-12-18T05:42:01;9.80;;;8.90;;
12631;SDS011;6381;45.748;12.106;2022-12-18T05:44:30;9.97;;;9.07;;
12631;SDS011;6381;45.748;12.106;2022-12-18T05:47:00;9.70;;;8.80;;
12631;SDS011;6381;45.748;12.106;2022-12-18T05:49:32;9.17;;;8.37;;
12631;SDS011;6381;45.748;12.106;2022-12-18T05:52:02;9.80;;;8.80;;
12631;SDS011;6381;45.748;12.106;2022-12-18T05:54:31;10.13;;;9.23;;
12631;SDS011;6381;45.748;12.106;2022-12-18T05:57:01;9.47;;;8.67;;
12631;SDS011;6381;45.748;12.106;2022-12-18T05:59:30;10.67;;;9.67;;
12631;SDS011;6381;45.748;12.106;2022-12-18T06:02:00;10.10;;;9.20;;
12631;SDS011;6381;45.748;12.106;2022-12-18T06:04:29;11.03;;;10.00;;
12631;SDS011;6381;45.748;12.106;2022-12-18T06:07:00;10.80;;;9.80;;
12631;SDS011;6381;45.748;12.106;2022-12-18T06:09:30;10.27;;;9.30;;
12631;SDS011;6381;45.748;12.106;2022-12-18T06:12:00;10.77;;;9.83;;
12631;SDS011;6381;45.748;12.106;2022-12-18T06:14:29;10.63;;;9.60;;
12631;SDS011;6381;45.748;12.106;2022-12-18T06:16:59;11.43;;;10.43;;
12631;SDS011;6381;45.748;12.106;2022-12-18T06:19:28;12.23;;;11.03;;
12631;SDS011;6381;45.748;12.106;2022-12-18T06:21:57;11.50;;;10.50;;
12631;SDS011;6381;45.748;12.106;2022-12-18T06:24:29;10.43;;;9.43;;
12631;SDS011;6381;45.748;12.106;2022-12-18T06:26:59;11.77;;;10.77;;
12631;SDS011;6381;45.748;12.106;2022-12-18T06:29:28;19.57;;;17.70;;
12631;SDS011;6381;45.748;12.106;2022-12-18T06:31:57;87.00;;;64.13;;
12631;SDS011;6381;45.748;12.106;2022-12-18T06:34:27;59.47;;;47.27;;
12631;SDS011;6381;45.748;12.106;2022-12-18T06:36:57;19.53;;;16.93;;
12631;SDS011;6381;45.748;12.106;2022-12-18T06:39:27;13.83;;;12.53;;
12631;SDS011;6381;45.748;12.106;2022-12-18T06:41:58;17.33;;;15.63;;
12631;SDS011;6381;45.748;12.106;2022-12-18T06:44:28;15.37;;;13.00;;
12631;SDS011;6381;45.748;12.106;2022-12-18T06:46:57;15.97;;;13.93;;
12631;SDS011;6381;45.748;12.106;2022-12-18T06:49:27;13.97;;;12.57;;
12631;SDS011;6381;45.748;12.106;2022-12-18T06:51:56;15.57;;;12.57;;
12631;SDS011;6381;45.748;12.106;2022-12-18T06:54:28;14.37;;;12.87;;
12631;SDS011;6381;45.748;12.106;2022-12-18T06:56:59;16.07;;;14.57;;
12631;SDS011;6381;45.748;12.106;2022-12-18T06:59:29;14.80;;;13.30;;
12631;SDS011;6381;45.748;12.106;2022-12-18T07:01:58;13.00;;;11.63;;
12631;SDS011;6381;45.748;12.106;2022-12-18T07:04:28;12.43;;;11.27;;
12631;SDS011;6381;45.748;12.106;2022-12-18T07:06:57;12.57;;;11.37;;
12631;SDS011;6381;45.748;12.106;2022-12-18T07:09:27;12.67;;;11.47;;
12631;SDS011;6381;45.748;12.106;2022-12-18T07:11:56;13.73;;;12.43;;
12631;SDS011;6381;45.748;12.106;2022-12-18T07:14:27;12.83;;;11.63;;
12631;SDS011;6381;45.748;12.106;2022-12-18T07:16:57;12.43;;;11.23;;
12631;SDS011;6381;45.748;12.106;2022-12-18T07:19:27;12.20;;;11.10;;
12631;SDS011;6381;45.748;12.106;2022-12-18T07:21:57;11.77;;;10.57;;
12631;SDS011;6381;45.748;12.106;2022-12-18T07:24:26;12.40;;;11.10;;
12631;SDS011;6381;45.748;12.106;2022-12-18T07:26:56;12.90;;;11.70;;
12631;SDS011;6381;45.748;12.106;2022-12-18T07:29:26;18.77;;;15.03;;
12631;SDS011;6381;45.748;12.106;2022-12-18T07:31:56;32.03;;;23.70;;
12631;SDS011;6381;45.748;12.106;2022-12-18T07:34:26;27.50;;;20.70;;
12631;SDS011;6381;45.748;12.106;2022-12-18T07:36:56;19.17;;;16.27;;
12631;SDS011;6381;45.748;12.106;2022-12-18T07:39:26;13.70;;;12.40;;
12631;SDS011;6381;45.748;12.106;2022-12-18T07:41:56;16.27;;;12.80;;
12631;SDS011;6381;45.748;12.106;2022-12-18T07:44:43;19.47;;;13.73;;
12631;SDS011;6381;45.748;12.106;2022-12-18T07:47:14;19.13;;;17.10;;
12631;SDS011;6381;45.748;12.106;2022-12-18T07:49:44;19.77;;;17.57;;
12631;SDS011;6381;45.748;12.106;2022-12-18T07:52:13;19.37;;;17.33;;
12631;SDS011;6381;45.748;12.106;2022-12-18T07:54:50;17.87;;;16.03;;
12631;SDS011;6381;45.748;12.106;2022-12-18T07:57:19;17.77;;;16.10;;
12631;SDS011;6381;45.748;12.106;2022-12-18T08:00:09;19.20;;;16.73;;
12631;SDS011;6381;45.748;12.106;2022-12-18T08:02:40;20.47;;;18.27;;
12631;SDS011;6381;45.748;12.106;2022-12-18T08:05:10;17.73;;;15.93;;
12631;SDS011;6381;45.748;12.106;2022-12-18T08:07:40;17.13;;;15.50;;
12631;SDS011;6381;45.748;12.106;2022-12-18T08:10:09;19.30;;;17.27;;
12631;SDS011;6381;45.748;12.106;2022-12-18T08:12:39;25.60;;;22.37;;
12631;SDS011;6381;45.748;12.106;2022-12-18T08:15:09;20.43;;;18.07;;
12631;SDS011;6381;45.748;12.106;2022-12-18T08:17:38;22.57;;;17.27;;
12631;SDS011;6381;45.748;12.106;2022-12-18T08:20:10;16.60;;;15.00;;
12631;SDS011;6381;45.748;12.106;2022-12-18T08:22:41;16.37;;;14.50;;
12631;SDS011;6381;45.748;12.106;2022-12-18T08:25:10;16.73;;;15.03;;
12631;SDS011;6381;45.748;12.106;2022-12-18T08:27:40;15.00;;;13.37;;
12631;SDS011;6381;45.748;12.106;2022-12-18T08:30:10;15.90;;;11.93;;
12631;SDS011;6381;45.748;12.106;2022-12-18T08:32:40;12.43;;;11.23;;
12631;SDS011;6381;45.748;12.106;2022-12-18T08:35:12;13.37;;;11.33;;
12631;SDS011;6381;45.748;12.106;2022-12-18T08:37:44;12.00;;;10.90;;
12631;SDS011;6381;45.748;12.106;2022-12-18T08:40:14;12.37;;;10.90;;
12631;SDS011;6381;45.748;12.106;2022-12-18T08:42:43;12.83;;;11.27;;
12631;SDS011;6381;45.748;12.106;2022-12-18T08:45:30;11.93;;;10.20;;
12631;SDS011;6381;45.748;12.106;2022-12-18T08:47:59;11.70;;;10.50;;
12631;SDS011;6381;45.748;12.106;2022-12-18T08:50:30;11.17;;;10.17;;
12631;SDS011;6381;45.748;12.106;2022-12-18T08:53:00;11.73;;;10.53;;
12631;SDS011;6381;45.748;12.106;2022-12-18T08:55:30;11.83;;;10.77;;
12631;SDS011;6381;45.748;12.106;2022-12-18T08:57:59;12.00;;;10.73;;
12631;SDS011;6381;45.748;12.106;2022-12-18T09:00:28;11.40;;;10.20;;
12631;SDS011;6381;45.748;12.106;2022-12-18T09:02:58;11.20;;;9.90;;
12631;SDS011;6381;45.748;12.106;2022-12-18T09:05:31;10.37;;;9.37;;
12631;SDS011;6381;45.748;12.106;2022-12-18T09:08:00;10.53;;;9.43;;
12631;SDS011;6381;45.748;12.106;2022-12-18T09:10:30;10.80;;;9.70;;
12631;SDS011;6381;45.748;12.106;2022-12-18T09:13:04;11.07;;;9.97;;
12631;SDS011;6381;45.748;12.106;2022-12-18T09:15:34;10.30;;;9.30;;
12631;SDS011;6381;45.748;12.106;2022-12-18T09:18:03;9.17;;;8.30;;
12631;SDS011;6381;45.748;12.106;2022-12-18T09:20:34;9.67;;;8.77;;
12631;SDS011;6381;45.748;12.106;2022-12-18T09:23:04;9.97;;;9.07;;
12631;SDS011;6381;45.748;12.106;2022-12-18T09:25:33;10.57;;;9.43;;
12631;SDS011;6381;45.748;12.106;2022-12-18T09:28:03;9.47;;;8.47;;
12631;SDS011;6381;45.748;12.106;2022-12-18T09:30:33;9.57;;;8.60;;
12631;SDS011;6381;45.748;12.106;2022-12-18T09:33:03;9.50;;;8.47;;
12631;SDS011;6381;45.748;12.106;2022-12-18T09:35:34;9.33;;;8.43;;
12631;SDS011;6381;45.748;12.106;2022-12-18T09:38:05;9.23;;;8.10;;
12631;SDS011;6381;45.748;12.106;2022-12-18T09:40:36;11.70;;;10.50;;
12631;SDS011;6381;45.748;12.106;2022-12-18T09:43:11;11.13;;;9.90;;
12631;SDS011;6381;45.748;12.106;2022-12-18T09:45:43;14.13;;;12.63;;
12631;SDS011;6381;45.748;12.106;2022-12-18T09:48:14;11.37;;;10.17;;
12631;SDS011;6381;45.748;12.106;2022-12-18T09:50:47;10.57;;;9.47;;
12631;SDS011;6381;45.748;12.106;2022-12-18T09:53:19;13.27;;;10.70;;
12631;SDS011;6381;45.748;12.106;2022-12-18T09:55:48;11.27;;;10.07;;
12631;SDS011;6381;45.748;12.106;2022-12-18T09:58:20;10.57;;;9.20;;
12631;SDS011;6381;45.748;12.106;2022-12-18T10:00:51;10.33;;;9.10;;
12631;SDS011;6381;45.748;12.106;2022-12-18T10:03:21;13.00;;;11.17;;
12631;SDS011;6381;45.748;12.106;2022-12-18T10:05:54;12.30;;;9.37;;
12631;SDS011;6381;45.748;12.106;2022-12-18T10:08:28;10.00;;;9.00;;
12631;SDS011;6381;45.748;12.106;2022-12-18T10:11:03;10.33;;;9.03;;
12631;SDS011;6381;45.748;12.106;2022-12-18T10:13:40;14.20;;;10.00;;
12631;SDS011;6381;45.748;12.106;2022-12-18T10:16:12;10.73;;;9.70;;
12631;SDS011;6381;45.748;12.106;2022-12-18T10:18:49;11.33;;;10.13;;
12631;SDS011;6381;45.748;12.106;2022-12-18T10:21:26;11.67;;;10.47;;
12631;SDS011;6381;45.748;12.106;2022-12-18T10:24:01;11.43;;;10.27;;
12631;SDS011;6381;45.748;12.106;2022-12-18T10:26:32;11.43;;;10.23;;
12631;SDS011;6381;45.748;12.106;2022-12-18T10:29:03;11.50;;;10.50;;
12631;SDS011;6381;45.748;12.106;2022-12-18T10:31:36;10.43;;;9.43;;
12631;SDS011;6381;45.748;12.106;2022-12-18T10:34:08;13.20;;;11.47;;
12631;SDS011;6381;45.748;12.106;2022-12-18T10:36:40;12.27;;;11.07;;
12631;SDS011;6381;45.748;12.106;2022-12-18T10:39:19;11.20;;;10.10;;
12631;SDS011;6381;45.748;12.106;2022-12-18T10:41:50;11.40;;;10.20;;
12631;SDS011;6381;45.748;12.106;2022-12-18T10:44:20;13.20;;;11.23;;
12631;SDS011;6381;45.748;12.106;2022-12-18T10:46:53;11.40;;;10.30;;
12631;SDS011;6381;45.748;12.106;2022-12-18T10:49:25;12.73;;;11.53;;
12631;SDS011;6381;45.748;12.106;2022-12-18T10:52:05;10.63;;;9.63;;
12631;SDS011;6381;45.748;12.106;2022-12-18T10:54:37;11.07;;;9.17;;
12631;SDS011;6381;45.748;12.106;2022-12-18T10:59:55;12.50;;;9.43;;
12631;SDS011;6381;45.748;12.106;2022-12-18T11:02:26;11.13;;;10.03;;
12631;SDS011;6381;45.748;12.106;2022-12-18T11:04:56;10.93;;;9.70;;
12631;SDS011;6381;45.748;12.106;2022-12-18T11:07:26;10.93;;;9.83;;
12631;SDS011;6381;45.748;12.106;2022-12-18T11:10:18;10.73;;;9.70;;
12631;SDS011;6381;45.748;12.106;2022-12-18T11:12:48;10.80;;;9.70;;
12631;SDS011;6381;45.748;12.106;2022-12-18T11:15:19;10.57;;;9.50;;
12631;SDS011;6381;45.748;12.106;2022-12-18T11:17:50;10.27;;;9.27;;
12631;SDS011;6381;45.748;12.106;2022-12-18T11:20:21;10.13;;;9.13;;
12631;SDS011;6381;45.748;12.106;2022-12-18T11:22:57;10.73;;;9.67;;
12631;SDS011;6381;45.748;12.106;2022-12-18T11:25:28;11.33;;;8.90;;
12631;SDS011;6381;45.748;12.106;2022-12-18T11:28:01;10.40;;;9.27;;
12631;SDS011;6381;45.748;12.106;2022-12-18T11:30:32;9.47;;;8.53;;
12631;SDS011;6381;45.748;12.106;2022-12-18T11:33:03;9.93;;;9.00;;
12631;SDS011;6381;45.748;12.106;2022-12-18T11:35:42;10.63;;;9.07;;
12631;SDS011;6381;45.748;12.106;2022-12-18T11:38:17;10.10;;;8.87;;
12631;SDS011;6381;45.748;12.106;2022-12-18T11:40:49;9.00;;;8.10;;
12631;SDS011;6381;45.748;12.106;2022-12-18T11:43:21;9.03;;;8.00;;
12631;SDS011;6381;45.748;12.106;2022-12-18T11:45:55;9.00;;;8.10;;
12631;SDS011;6381;45.748;12.106;2022-12-18T11:48:27;8.77;;;7.87;;
12631;SDS011;6381;45.748;12.106;2022-12-18T11:50:58;9.50;;;8.57;;
12631;SDS011;6381;45.748;12.106;2022-12-18T11:53:32;8.40;;;7.60;;
12631;SDS011;6381;45.748;12.106;2022-12-18T11:56:11;9.73;;;7.80;;
12631;SDS011;6381;45.748;12.106;2022-12-18T11:58:46;9.30;;;7.77;;
12631;SDS011;6381;45.748;12.106;2022-12-18T12:01:23;8.90;;;8.00;;
12631;SDS011;6381;45.748;12.106;2022-12-18T12:04:01;9.53;;;8.30;;
12631;SDS011;6381;45.748;12.106;2022-12-18T12:06:37;8.77;;;7.87;;
12631;SDS011;6381;45.748;12.106;2022-12-18T12:09:11;8.63;;;7.83;;
12631;SDS011;6381;45.748;12.106;2022-12-18T12:11:43;8.00;;;7.30;;
12631;SDS011;6381;45.748;12.106;2022-12-18T12:14:22;9.40;;;8.50;;
12631;SDS011;6381;45.748;12.106;2022-12-18T12:16:57;9.17;;;8.27;;
12631;SDS011;6381;45.748;12.106;2022-12-18T12:19:32;8.30;;;7.50;;
12631;SDS011;6381;45.748;12.106;2022-12-18T12:22:06;9.27;;;8.37;;
12631;SDS011;6381;45.748;12.106;2022-12-18T12:24:39;9.00;;;8.20;;
12631;SDS011;6381;45.748;12.106;2022-12-18T12:27:15;9.43;;;8.43;;
12631;SDS011;6381;45.748;12.106;2022-12-18T12:29:50;8.97;;;8.17;;
12631;SDS011;6381;45.748;12.106;2022-12-18T12:32:25;9.03;;;8.13;;
12631;SDS011;6381;45.748;12.106;2022-12-18T12:35:00;9.43;;;8.53;;
12631;SDS011;6381;45.748;12.106;2022-12-18T12:37:37;8.57;;;7.83;;
12631;SDS011;6381;45.748;12.106;2022-12-18T12:40:12;9.20;;;8.30;;
12631;SDS011;6381;45.748;12.106;2022-12-18T12:43:10;9.73;;;8.57;;
12631;SDS011;6381;45.748;12.106;2022-12-18T12:45:44;11.00;;;10.00;;
12631;SDS011;6381;45.748;12.106;2022-12-18T12:48:17;10.53;;;9.47;;
12631;SDS011;6381;45.748;12.106;2022-12-18T12:50:48;9.03;;;8.13;;
12631;SDS011;6381;45.748;12.106;2022-12-18T12:53:21;10.20;;;9.20;;
12631;SDS011;6381;45.748;12.106;2022-12-18T12:55:53;9.70;;;8.80;;
12631;SDS011;6381;45.748;12.106;2022-12-18T12:58:26;9.13;;;8.33;;
12631;SDS011;6381;45.748;12.106;2022-12-18T13:01:01;9.43;;;8.53;;
12631;SDS011;6381;45.748;12.106;2022-12-18T13:03:37;9.20;;;8.33;;
12631;SDS011;6381;45.748;12.106;2022-12-18T13:06:12;8.60;;;7.70;;
12631;SDS011;6381;45.748;12.106;2022-12-18T13:08:53;9.83;;;8.93;;
12631;SDS011;6381;45.748;12.106;2022-12-18T13:11:30;9.93;;;8.93;;
12631;SDS011;6381;45.748;12.106;2022-12-18T13:14:29;10.47;;;9.47;;
12631;SDS011;6381;45.748;12.106;2022-12-18T13:17:15;10.50;;;9.53;;
12631;SDS011;6381;45.748;12.106;2022-12-18T13:19:48;10.27;;;9.30;;
12631;SDS011;6381;45.748;12.106;2022-12-18T13:22:21;11.00;;;9.90;;
12631;SDS011;6381;45.748;12.106;2022-12-18T13:24:52;10.23;;;9.23;;
12631;SDS011;6381;45.748;12.106;2022-12-18T13:36:39;11.37;;;10.27;;
12631;SDS011;6381;45.748;12.106;2022-12-18T13:39:09;11.47;;;10.37;;
12631;SDS011;6381;45.748;12.106;2022-12-18T13:41:43;10.63;;;9.53;;
12631;SDS011;6381;45.748;12.106;2022-12-18T13:44:13;10.43;;;9.37;;
12631;SDS011;6381;45.748;12.106;2022-12-18T13:46:50;10.37;;;9.37;;
12631;SDS011;6381;45.748;12.106;2022-12-18T13:49:21;10.03;;;9.03;;
12631;SDS011;6381;45.748;12.106;2022-12-18T13:51:54;12.10;;;10.13;;
12631;SDS011;6381;45.748;12.106;2022-12-18T13:54:25;10.10;;;9.20;;
12631;SDS011;6381;45.748;12.106;2022-12-18T13:56:58;11.30;;;10.20;;
12631;SDS011;6381;45.748;12.106;2022-12-18T13:59:32;10.53;;;9.53;;
12631;SDS011;6381;45.748;12.106;2022-12-18T14:02:07;11.20;;;10.10;;
12631;SDS011;6381;45.748;12.106;2022-12-18T14:04:39;10.97;;;9.87;;
12631;SDS011;6381;45.748;12.106;2022-12-18T14:07:12;10.70;;;9.70;;
12631;SDS011;6381;45.748;12.106;2022-12-18T14:09:43;10.70;;;9.70;;
12631;SDS011;6381;45.748;12.106;2022-12-18T14:12:16;11.00;;;9.90;;
12631;SDS011;6381;45.748;12.106;2022-12-18T14:15:05;11.47;;;10.23;;
12631;SDS011;6381;45.748;12.106;2022-12-18T14:17:36;11.33;;;10.23;;
12631;SDS011;6381;45.748;12.106;2022-12-18T14:20:12;11.90;;;10.70;;
12631;SDS011;6381;45.748;12.106;2022-12-18T14:22:44;11.67;;;10.57;;
12631;SDS011;6381;45.748;12.106;2022-12-18T14:25:15;12.30;;;10.87;;
12631;SDS011;6381;45.748;12.106;2022-12-18T14:27:46;11.47;;;10.37;;
12631;SDS011;6381;45.748;12.106;2022-12-18T14:30:24;11.33;;;10.30;;
12631;SDS011;6381;45.748;12.106;2022-12-18T14:33:01;11.70;;;10.60;;
12631;SDS011;6381;45.748;12.106;2022-12-18T14:35:30;11.73;;;10.53;;
12631;SDS011;6381;45.748;12.106;2022-12-18T14:38:21;13.90;;;11.67;;
12631;SDS011;6381;45.748;12.106;2022-12-18T14:40:55;12.17;;;10.63;;
12631;SDS011;6381;45.748;12.106;2022-12-18T14:43:26;13.67;;;12.23;;
12631;SDS011;6381;45.748;12.106;2022-12-18T14:45:56;13.87;;;12.47;;
12631;SDS011;6381;45.748;12.106;2022-12-18T14:48:36;13.20;;;11.90;;
12631;SDS011;6381;45.748;12.106;2022-12-18T14:51:12;14.97;;;13.37;;
12631;SDS011;6381;45.748;12.106;2022-12-18T14:53:45;11.97;;;10.83;;
12631;SDS011;6381;45.748;12.106;2022-12-18T14:56:21;13.43;;;12.13;;
12631;SDS011;6381;45.748;12.106;2022-12-18T14:58:52;13.10;;;11.80;;
12631;SDS011;6381;45.748;12.106;2022-12-18T15:01:26;13.33;;;11.93;;
12631;SDS011;6381;45.748;12.106;2022-12-18T15:03:56;14.23;;;12.00;;
12631;SDS011;6381;45.748;12.106;2022-12-18T15:06:28;13.30;;;12.00;;
12631;SDS011;6381;45.748;12.106;2022-12-18T15:09:00;13.80;;;12.40;;
12631;SDS011;6381;45.748;12.106;2022-12-18T15:11:34;14.50;;;13.00;;
12631;SDS011;6381;45.748;12.106;2022-12-18T15:17:13;13.77;;;12.47;;
12631;SDS011;6381;45.748;12.106;2022-12-18T15:19:44;13.43;;;12.13;;
12631;SDS011;6381;45.748;12.106;2022-12-18T15:22:21;14.20;;;12.80;;